createdAt,value
2022-12-22T00:00:04.725Z,21.38
2022-12-22T00:02:50.443Z,22.48
2022-12-22T00:05:38.554Z,22.15
2022-12-22T00:08:24.630Z,20.70
2022-12-22T00:11:11.170Z,20.08
2022-12-22T00:13:58.085Z,20.63
2022-12-22T00:16:52.616Z,19.92
2022-12-22T00:19:38.616Z,21.10
2022-12-22T00:22:43.887Z,20.10
2022-12-22T00:25:34.054Z,17.70
2022-12-22T00:28:20.423Z,17.10
2022-12-22T00:31:06.449Z,16.38
2022-12-22T00:33:52.234Z,16.00
2022-12-22T00:36:40.451Z,16.77
2022-12-22T00:39:31.166Z,17.00
2022-12-22T00:42:16.658Z,15.65
2022-12-22T00:45:02.169Z,14.82
2022-12-22T00:47:49.234Z,14.70
2022-12-22T00:50:35.251Z,14.35
2022-12-22T00:53:21.342Z,14.57
2022-12-22T00:56:07.079Z,13.65
2022-12-22T00:58:53.029Z,14.55
2022-12-22T01:01:38.564Z,14.98
2022-12-22T01:04:23.923Z,14.65
2022-12-22T01:07:09.484Z,14.32
2022-12-22T01:09:55.082Z,15.80
2022-12-22T01:12:43.996Z,14.45
2022-12-22T01:15:35.409Z,13.35
2022-12-22T01:18:21.327Z,15.35
2022-12-22T01:21:06.793Z,15.48
2022-12-22T01:23:52.181Z,14.40
2022-12-22T01:26:38.585Z,15.00
2022-12-22T01:29:24.081Z,14.77
2022-12-22T01:32:10.075Z,14.63
2022-12-22T01:34:55.615Z,14.20
2022-12-22T01:37:41.219Z,13.45
2022-12-22T01:40:34.735Z,13.90
2022-12-22T01:43:20.346Z,15.15
2022-12-22T01:46:05.808Z,14.75
2022-12-22T01:48:51.243Z,16.33
2022-12-22T01:51:47.214Z,16.42
2022-12-22T01:54:33.792Z,18.05
2022-12-22T01:57:19.839Z,17.58
2022-12-22T02:00:05.307Z,19.90
2022-12-22T02:02:51.321Z,18.95
2022-12-22T02:05:39.060Z,18.40
2022-12-22T02:08:43.788Z,17.17
2022-12-22T02:11:41.063Z,18.83
2022-12-22T02:14:42.728Z,19.67
2022-12-22T02:17:39.940Z,18.67
2022-12-22T02:20:55.272Z,17.88
2022-12-22T02:23:43.288Z,19.55
2022-12-22T02:26:46.749Z,17.95
2022-12-22T02:29:35.270Z,23.10
2022-12-22T02:32:20.737Z,19.23
2022-12-22T02:35:06.242Z,21.35
2022-12-22T02:37:57.286Z,18.88
2022-12-22T02:40:59.860Z,20.85
2022-12-22T02:44:00.096Z,18.02
2022-12-22T02:46:49.928Z,18.40
2022-12-22T02:49:40.963Z,17.33
2022-12-22T02:52:40.148Z,16.90
2022-12-22T02:55:26.857Z,17.65
2022-12-22T02:58:12.503Z,17.23
2022-12-22T03:00:58.596Z,18.95
2022-12-22T03:03:44.383Z,16.05
2022-12-22T03:06:29.666Z,15.90
2022-12-22T03:09:15.313Z,16.15
2022-12-22T03:12:00.752Z,17.98
2022-12-22T03:14:46.176Z,17.35
2022-12-22T03:17:31.792Z,18.90
2022-12-22T03:20:17.211Z,16.00
2022-12-22T03:23:02.747Z,15.80
2022-12-22T03:25:48.269Z,17.80
2022-12-22T03:28:14.966Z,17.52
2022-12-22T03:30:42.318Z,18.15
2022-12-22T03:33:09.106Z,18.60
2022-12-22T03:35:36.094Z,20.92
2022-12-22T03:38:03.642Z,20.52
2022-12-22T03:40:33.457Z,20.67
2022-12-22T03:43:19.033Z,22.08
2022-12-22T03:46:04.416Z,22.10
2022-12-22T03:48:31.252Z,21.05
2022-12-22T03:50:57.950Z,21.92
2022-12-22T03:53:24.684Z,22.55
2022-12-22T03:55:51.546Z,22.73
2022-12-22T03:58:18.326Z,20.83
2022-12-22T04:00:45.148Z,19.05
2022-12-22T04:03:12.197Z,21.88
2022-12-22T04:05:39.103Z,22.60
2022-12-22T04:08:06.207Z,20.10
2022-12-22T04:10:52.176Z,21.20
2022-12-22T04:13:18.870Z,19.73
2022-12-22T04:15:45.619Z,20.75
2022-12-22T04:18:12.375Z,18.52
2022-12-22T04:20:39.067Z,19.35
2022-12-22T04:23:05.895Z,19.70
2022-12-22T04:25:32.813Z,19.85
2022-12-22T04:27:59.656Z,17.60
2022-12-22T04:30:26.476Z,18.58
2022-12-22T04:32:53.203Z,19.13
2022-12-22T04:35:19.949Z,19.73
2022-12-22T04:37:46.674Z,18.92
2022-12-22T04:40:13.535Z,17.80
2022-12-22T04:42:40.306Z,18.17
2022-12-22T04:45:07.649Z,18.42
2022-12-22T04:47:34.426Z,17.88
2022-12-22T04:50:01.129Z,16.60
2022-12-22T04:52:27.832Z,17.70
2022-12-22T04:54:54.593Z,17.20
2022-12-22T04:57:21.509Z,17.85
2022-12-22T04:59:48.255Z,15.00
2022-12-22T05:02:15.148Z,16.48
2022-12-22T05:04:42.030Z,15.48
2022-12-22T05:07:09.782Z,15.45
2022-12-22T05:09:36.615Z,15.73
2022-12-22T05:12:23.473Z,16.45
2022-12-22T05:14:50.296Z,14.10
2022-12-22T05:17:17.010Z,15.88
2022-12-22T05:19:43.922Z,16.25
2022-12-22T05:22:10.634Z,13.60
2022-12-22T05:24:37.460Z,16.20
2022-12-22T05:27:04.189Z,18.02
2022-12-22T05:29:31.007Z,16.02
2022-12-22T05:31:57.714Z,17.60
2022-12-22T05:34:24.574Z,16.60
2022-12-22T05:36:51.304Z,20.67
2022-12-22T05:39:18.087Z,19.20
2022-12-22T05:41:45.200Z,17.80
2022-12-22T05:44:12.034Z,27.30
2022-12-22T05:46:38.863Z,17.63
2022-12-22T05:49:05.668Z,39.97
2022-12-22T05:51:32.435Z,17.63
2022-12-22T05:53:59.171Z,16.43
2022-12-22T05:56:25.952Z,14.30
2022-12-22T05:58:52.715Z,12.37
2022-12-22T06:01:19.465Z,9.70
2022-12-22T06:03:46.314Z,11.27
2022-12-22T06:06:13.067Z,11.63
2022-12-22T06:08:39.782Z,9.53
2022-12-22T06:11:06.577Z,9.50
2022-12-22T06:13:33.485Z,9.90
2022-12-22T06:16:00.276Z,8.10
2022-12-22T06:18:27.452Z,8.07
2022-12-22T06:20:54.273Z,11.07
2022-12-22T06:23:22.826Z,8.20
2022-12-22T06:26:01.347Z,7.50
2022-12-22T06:28:29.371Z,7.27
2022-12-22T06:30:56.595Z,7.37
2022-12-22T06:33:23.532Z,6.73
2022-12-22T06:35:57.620Z,6.40
2022-12-22T06:38:25.390Z,5.70
2022-12-22T06:40:52.140Z,6.00
2022-12-22T06:43:18.903Z,5.73
2022-12-22T06:45:45.713Z,5.03
2022-12-22T06:48:13.472Z,5.90
2022-12-22T06:50:40.890Z,5.67
2022-12-22T06:53:08.367Z,5.93
2022-12-22T06:55:35.744Z,5.50
2022-12-22T06:58:02.527Z,6.60
2022-12-22T07:00:29.741Z,5.80
2022-12-22T07:02:56.697Z,6.00
2022-12-22T07:05:24.556Z,5.67
2022-12-22T07:07:51.783Z,5.90
2022-12-22T07:10:18.573Z,5.93
2022-12-22T07:12:45.359Z,5.00
2022-12-22T07:15:12.128Z,4.90
2022-12-22T07:17:41.535Z,5.07
2022-12-22T07:20:08.949Z,4.57
2022-12-22T07:22:35.707Z,5.65
2022-12-22T07:25:02.507Z,5.07
2022-12-22T07:27:29.344Z,5.00
2022-12-22T07:29:56.120Z,5.40
2022-12-22T07:32:22.863Z,5.25
2022-12-22T07:34:49.602Z,5.43
2022-12-22T07:37:16.350Z,4.97
2022-12-22T07:39:43.075Z,4.43
2022-12-22T07:42:30.722Z,5.05
2022-12-22T07:44:57.532Z,5.60
2022-12-22T07:47:27.337Z,5.28
2022-12-22T07:50:15.286Z,5.10
2022-12-22T07:52:42.044Z,4.70
2022-12-22T07:55:09.334Z,4.90
2022-12-22T07:57:36.141Z,6.25
2022-12-22T08:00:10.237Z,7.00
2022-12-22T08:02:39.317Z,5.75
2022-12-22T08:05:08.057Z,4.40
2022-12-22T08:07:34.977Z,5.47
2022-12-22T08:10:02.087Z,4.97
2022-12-22T08:12:29.729Z,3.70
2022-12-22T08:14:56.782Z,2.90
2022-12-22T08:17:23.730Z,2.93
2022-12-22T08:19:50.564Z,4.10
2022-12-22T08:22:17.404Z,3.00
2022-12-22T08:24:44.173Z,2.43
2022-12-22T08:27:25.765Z,2.53
2022-12-22T08:29:57.795Z,3.20
2022-12-22T08:32:24.643Z,3.80
2022-12-22T08:34:52.957Z,3.03
2022-12-22T08:37:24.722Z,2.57
2022-12-22T08:39:56.436Z,2.40
2022-12-22T08:42:25.547Z,3.10
2022-12-22T08:44:53.499Z,2.17
2022-12-22T08:47:21.463Z,2.93
2022-12-22T08:49:49.491Z,2.67
2022-12-22T08:52:18.777Z,2.43
2022-12-22T08:54:46.109Z,2.50
2022-12-22T08:57:12.887Z,2.40
2022-12-22T08:59:39.637Z,2.70
2022-12-22T09:02:08.071Z,2.27
2022-12-22T09:04:36.628Z,3.03
2022-12-22T09:07:03.664Z,2.17
2022-12-22T09:09:34.559Z,2.40
2022-12-22T09:12:02.933Z,2.17
2022-12-22T09:14:30.632Z,2.47
2022-12-22T09:16:58.588Z,2.37
2022-12-22T09:19:25.402Z,2.17
2022-12-22T09:21:54.353Z,2.00
2022-12-22T09:24:21.291Z,1.93
2022-12-22T09:26:48.044Z,2.73
2022-12-22T09:29:17.718Z,2.13
2022-12-22T09:31:44.853Z,2.30
2022-12-22T09:34:17.116Z,1.80
2022-12-22T09:36:46.898Z,1.70
2022-12-22T09:39:14.355Z,1.50
2022-12-22T09:41:54.665Z,1.30
2022-12-22T09:44:37.068Z,2.00
2022-12-22T09:47:19.402Z,1.70
2022-12-22T09:49:46.265Z,1.50
2022-12-22T09:52:44.684Z,1.87
2022-12-22T09:55:35.790Z,1.40
2022-12-22T09:58:04.569Z,1.50
2022-12-22T10:00:36.575Z,1.53
2022-12-22T10:03:40.566Z,2.03
2022-12-22T10:06:34.754Z,2.13
2022-12-22T10:09:46.157Z,2.37
2022-12-22T10:12:06.508Z,2.10
2022-12-22T10:14:43.318Z,2.03
2022-12-22T10:17:29.650Z,1.83
2022-12-22T10:20:28.648Z,2.30
2022-12-22T10:23:06.856Z,1.93
2022-12-22T10:29:06.043Z,1.93
2022-12-22T10:31:34.957Z,1.60
2022-12-22T10:34:17.032Z,1.90
2022-12-22T10:36:53.422Z,2.07
2022-12-22T10:39:33.166Z,1.50
2022-12-22T10:42:07.165Z,1.87
2022-12-22T10:44:37.154Z,1.70
2022-12-22T10:47:33.273Z,1.60
2022-12-22T10:52:31.945Z,2.93
2022-12-22T10:55:17.851Z,4.27
2022-12-22T10:57:44.762Z,3.07
2022-12-22T11:00:23.691Z,2.40
2022-12-22T11:02:56.333Z,2.17
2022-12-22T11:05:23.352Z,4.90
2022-12-22T11:07:50.576Z,4.43
2022-12-22T11:10:33.684Z,3.77
2022-12-22T11:13:02.351Z,2.87
2022-12-22T11:15:58.221Z,2.87
2022-12-22T11:19:02.435Z,3.80
2022-12-22T11:21:38.610Z,2.80
2022-12-22T11:24:45.330Z,2.03
2022-12-22T11:27:27.830Z,2.70
2022-12-22T11:30:09.557Z,3.27
2022-12-22T11:32:58.203Z,2.77
2022-12-22T11:35:36.954Z,1.47
2022-12-22T11:38:27.496Z,1.57
2022-12-22T11:41:35.402Z,1.77
2022-12-22T11:44:39.545Z,1.40
2022-12-22T11:47:35.361Z,2.70
2022-12-22T11:50:59.039Z,2.03
2022-12-22T11:52:48.713Z,2.30
2022-12-22T11:55:42.838Z,1.90
2022-12-22T11:58:34.477Z,1.60
2022-12-22T12:01:20.575Z,1.47
2022-12-22T12:04:06.199Z,2.20
2022-12-22T12:06:50.048Z,1.63
2022-12-22T12:09:19.613Z,2.27
2022-12-22T12:12:18.631Z,2.00
2022-12-22T12:15:05.707Z,1.50
2022-12-22T12:17:49.039Z,1.53
2022-12-22T12:20:36.869Z,2.57
2022-12-22T12:23:40.530Z,1.90
2022-12-22T12:26:31.166Z,2.60
2022-12-22T12:29:16.017Z,2.00
2022-12-22T12:32:01.345Z,1.70
2022-12-22T12:34:34.107Z,1.80
2022-12-22T12:37:20.248Z,1.83
2022-12-22T12:40:15.426Z,1.90
2022-12-22T12:42:44.739Z,2.23
2022-12-22T12:45:41.310Z,1.73
2022-12-22T12:48:26.008Z,3.00
2022-12-22T12:50:57.849Z,1.53
2022-12-22T12:53:27.579Z,1.70
2022-12-22T12:55:59.271Z,1.97
2022-12-22T12:58:35.410Z,2.30
2022-12-22T13:01:18.263Z,1.30
2022-12-22T13:04:04.565Z,1.60
2022-12-22T13:06:49.802Z,1.43
2022-12-22T13:12:39.705Z,2.27
2022-12-22T13:15:36.884Z,1.70
2022-12-22T13:18:10.624Z,1.13
2022-12-22T13:20:38.061Z,1.47
2022-12-22T13:23:12.339Z,1.23
2022-12-22T13:26:22.205Z,1.43
2022-12-22T13:28:56.977Z,1.50
2022-12-22T13:31:57.949Z,2.77
2022-12-22T13:35:29.187Z,1.93
2022-12-22T13:37:42.962Z,1.70
2022-12-22T13:40:25.144Z,1.90
2022-12-22T13:43:02.950Z,1.60
2022-12-22T13:45:38.457Z,1.50
2022-12-22T13:48:12.316Z,1.43
2022-12-22T13:50:43.906Z,1.30
2022-12-22T13:53:34.439Z,2.00
2022-12-22T13:56:02.444Z,1.50
2022-12-22T13:58:35.489Z,2.20
2022-12-22T14:01:02.312Z,2.53
2022-12-22T14:03:58.241Z,1.87
2022-12-22T14:06:36.377Z,2.00
2022-12-22T14:09:23.396Z,1.80
2022-12-22T14:11:57.821Z,1.90
2022-12-22T14:14:31.044Z,1.80
2022-12-22T14:17:00.600Z,1.67
2022-12-22T14:19:33.151Z,1.53
2022-12-22T14:22:05.577Z,1.60
2022-12-22T14:24:40.948Z,2.20
2022-12-22T14:27:33.919Z,2.20
2022-12-22T14:30:03.034Z,1.70
2022-12-22T14:33:04.841Z,2.00
2022-12-22T14:35:32.116Z,3.00
2022-12-22T14:38:18.606Z,2.07
2022-12-22T14:40:49.676Z,2.83
2022-12-22T14:46:46.091Z,1.90
2022-12-22T14:49:19.436Z,1.90
2022-12-22T14:52:14.313Z,2.37
2022-12-22T14:54:45.769Z,1.67
2022-12-22T14:57:17.217Z,1.60
2022-12-22T14:59:59.181Z,2.07
2022-12-22T15:02:39.227Z,2.20
2022-12-22T15:05:36.204Z,2.13
2022-12-22T15:08:07.939Z,2.03
2022-12-22T15:10:44.327Z,2.00
2022-12-22T15:13:22.608Z,2.00
2022-12-22T15:15:53.157Z,2.20
2022-12-22T15:18:27.382Z,2.13
2022-12-22T15:20:56.092Z,2.53
2022-12-22T15:23:23.116Z,2.47
2022-12-22T15:25:49.979Z,2.30
2022-12-22T15:28:16.775Z,2.70
2022-12-22T15:30:43.928Z,2.47
2022-12-22T15:33:16.189Z,2.53
2022-12-22T15:35:43.956Z,2.20
2022-12-22T15:38:14.708Z,2.80
2022-12-22T15:40:42.069Z,3.47
2022-12-22T15:43:22.201Z,4.63
2022-12-22T15:45:49.495Z,3.47
2022-12-22T15:48:28.520Z,2.47
2022-12-22T15:51:40.286Z,2.80
2022-12-22T15:54:13.750Z,3.30
2022-12-22T15:56:41.418Z,2.93
2022-12-22T15:59:22.600Z,3.20
2022-12-22T16:01:56.509Z,2.47
2022-12-22T16:04:28.636Z,2.80
2022-12-22T16:06:57.443Z,3.63
2022-12-22T16:09:30.576Z,2.60
2022-12-22T16:11:57.688Z,2.97
2022-12-22T16:14:25.311Z,3.00
2022-12-22T16:16:52.818Z,3.13
2022-12-22T16:19:19.645Z,2.73
2022-12-22T16:21:49.016Z,2.70
2022-12-22T16:24:36.209Z,3.57
2022-12-22T16:27:03.588Z,3.03
2022-12-22T16:29:31.087Z,3.80
2022-12-22T16:32:22.495Z,3.17
2022-12-22T16:35:19.780Z,3.60
2022-12-22T16:37:49.011Z,4.33
2022-12-22T16:40:19.764Z,4.10
2022-12-22T16:45:57.926Z,4.63
2022-12-22T16:48:41.014Z,4.20
2022-12-22T16:51:13.677Z,3.63
2022-12-22T16:53:40.427Z,3.80
2022-12-22T16:56:14.342Z,4.33
2022-12-22T16:58:41.049Z,3.70
2022-12-22T17:01:07.833Z,2.63
2022-12-22T17:03:37.712Z,3.03
2022-12-22T17:06:05.764Z,3.47
2022-12-22T17:08:36.273Z,3.23
2022-12-22T17:11:10.420Z,2.83
2022-12-22T17:13:38.756Z,4.10
2022-12-22T17:16:05.719Z,3.30
2022-12-22T17:18:37.792Z,3.83
2022-12-22T17:21:04.664Z,4.10
2022-12-22T17:23:38.022Z,6.10
2022-12-22T17:26:10.288Z,5.03
2022-12-22T17:28:38.489Z,4.93
2022-12-22T17:31:05.566Z,5.20
2022-12-22T17:33:32.509Z,4.00
2022-12-22T17:36:00.628Z,4.47
2022-12-22T17:38:28.897Z,8.53
2022-12-22T17:40:57.600Z,11.60
2022-12-22T17:43:24.603Z,12.20
2022-12-22T17:45:52.346Z,11.90
2022-12-22T17:48:19.119Z,11.30
2022-12-22T17:50:50.002Z,9.10
2022-12-22T17:53:20.978Z,6.83
2022-12-22T17:58:35.214Z,4.60
2022-12-22T18:01:01.975Z,4.20
2022-12-22T18:03:28.769Z,5.20
2022-12-22T18:05:55.642Z,4.80
2022-12-22T18:08:22.425Z,4.97
2022-12-22T18:10:49.704Z,5.83
2022-12-22T18:13:22.730Z,7.30
2022-12-22T18:15:49.649Z,10.53
2022-12-22T18:18:18.281Z,10.13
2022-12-22T18:21:06.716Z,13.10
2022-12-22T18:23:34.093Z,13.40
2022-12-22T18:26:01.270Z,9.90
2022-12-22T18:28:28.017Z,7.40
2022-12-22T18:30:54.887Z,6.67
2022-12-22T18:33:21.687Z,5.07
2022-12-22T18:35:49.215Z,6.37
2022-12-22T18:38:36.394Z,4.77
2022-12-22T18:41:03.323Z,4.23
2022-12-22T18:43:30.088Z,5.90
2022-12-22T18:45:56.879Z,6.20
2022-12-22T18:48:23.629Z,5.93
2022-12-22T18:50:50.612Z,5.33
2022-12-22T18:53:29.361Z,5.47
2022-12-22T18:55:57.038Z,5.10
2022-12-22T18:58:24.797Z,5.50
2022-12-22T19:00:53.477Z,4.67
2022-12-22T19:03:26.533Z,5.47
2022-12-22T19:05:53.406Z,6.30
2022-12-22T19:08:23.264Z,6.60
2022-12-22T19:10:56.332Z,6.27
2022-12-22T19:13:28.579Z,5.50
2022-12-22T19:15:56.544Z,6.63
2022-12-22T19:18:27.153Z,8.30
2022-12-22T19:20:55.294Z,12.87
2022-12-22T19:23:23.904Z,16.37
2022-12-22T19:26:07.791Z,16.47
2022-12-22T19:28:39.718Z,12.27
2022-12-22T19:31:08.397Z,12.10
2022-12-22T19:33:38.085Z,8.80
2022-12-22T19:36:05.703Z,6.73
2022-12-22T19:38:34.470Z,11.83
2022-12-22T19:41:04.003Z,8.47
2022-12-22T19:43:31.067Z,9.60
2022-12-22T19:45:58.057Z,8.70
2022-12-22T19:48:26.918Z,7.80
2022-12-22T19:50:54.328Z,8.20
2022-12-22T19:53:21.755Z,7.57
2022-12-22T19:55:54.302Z,9.97
2022-12-22T19:58:27.457Z,7.90
2022-12-22T20:00:55.462Z,7.47
2022-12-22T20:03:25.633Z,8.17
2022-12-22T20:05:53.096Z,8.50
2022-12-22T20:08:19.920Z,9.00
2022-12-22T20:10:48.751Z,9.00
2022-12-22T20:13:23.284Z,8.27
2022-12-22T20:15:50.287Z,7.37
2022-12-22T20:18:22.706Z,5.80
2022-12-22T20:21:10.880Z,5.80
2022-12-22T20:23:39.189Z,5.27
2022-12-22T20:26:09.640Z,4.93
2022-12-22T20:28:38.799Z,5.33
2022-12-22T20:31:08.399Z,6.10
2022-12-22T20:33:35.411Z,7.50
2022-12-22T20:36:03.801Z,5.60
2022-12-22T20:38:38.991Z,5.23
2022-12-22T20:41:08.111Z,5.63
2022-12-22T20:43:36.508Z,4.53
2022-12-22T20:46:12.878Z,5.20
2022-12-22T20:48:49.091Z,4.43
2022-12-22T20:51:19.066Z,5.00
2022-12-22T20:53:47.156Z,4.50
2022-12-22T20:56:30.187Z,4.43
2022-12-22T20:58:58.514Z,4.27
2022-12-22T21:01:25.472Z,4.73
2022-12-22T21:03:52.435Z,4.43
2022-12-22T21:06:26.922Z,5.20
2022-12-22T21:08:55.896Z,5.97
2022-12-22T21:11:23.369Z,6.40
2022-12-22T21:13:50.537Z,5.30
2022-12-22T21:16:23.727Z,5.50
2022-12-22T21:18:51.763Z,4.93
2022-12-22T21:21:19.056Z,5.07
2022-12-22T21:23:46.339Z,5.00
2022-12-22T21:26:21.881Z,4.80
2022-12-22T21:28:49.430Z,4.60
2022-12-22T21:31:16.339Z,3.80
2022-12-22T21:33:43.552Z,4.73
2022-12-22T21:36:25.934Z,3.83
2022-12-22T21:38:55.619Z,3.80
2022-12-22T21:41:41.465Z,4.33
2022-12-22T21:44:08.410Z,6.50
2022-12-22T21:46:35.555Z,5.97
2022-12-22T21:49:02.396Z,4.97
2022-12-22T21:51:29.140Z,6.00
2022-12-22T21:53:55.841Z,5.83
2022-12-22T21:56:22.545Z,5.30
2022-12-22T21:58:49.299Z,5.40
2022-12-22T22:01:16.248Z,5.27
2022-12-22T22:03:43.194Z,5.93
2022-12-22T22:06:09.998Z,5.70
2022-12-22T22:08:36.734Z,4.90
2022-12-22T22:11:03.501Z,6.30
2022-12-22T22:13:30.610Z,5.60
2022-12-22T22:15:57.850Z,5.20
2022-12-22T22:18:24.683Z,5.60
2022-12-22T22:20:51.470Z,5.60
2022-12-22T22:23:18.241Z,4.40
2022-12-22T22:25:45.035Z,4.57
2022-12-22T22:28:11.824Z,5.40
2022-12-22T22:30:41.551Z,4.37
2022-12-22T22:33:08.342Z,4.67
2022-12-22T22:35:35.065Z,4.70
2022-12-22T22:38:01.747Z,4.70
2022-12-22T22:40:28.520Z,4.30
2022-12-22T22:42:56.869Z,3.60
2022-12-22T22:45:24.175Z,3.47
2022-12-22T22:47:52.851Z,2.63
2022-12-22T22:50:21.037Z,4.57
2022-12-22T22:52:48.417Z,4.83
2022-12-22T22:55:15.798Z,3.20
2022-12-22T22:57:43.082Z,3.47
2022-12-22T23:00:12.332Z,3.33
2022-12-22T23:02:39.315Z,3.30
2022-12-22T23:05:06.550Z,2.90
2022-12-22T23:07:34.294Z,2.50
2022-12-22T23:10:01.114Z,2.77
2022-12-22T23:12:28.063Z,2.90
2022-12-22T23:14:54.852Z,3.43
2022-12-22T23:17:21.827Z,3.13
2022-12-22T23:19:48.748Z,2.50
2022-12-22T23:22:16.073Z,2.77
2022-12-22T23:24:42.876Z,2.63
2022-12-22T23:27:09.666Z,2.80
2022-12-22T23:29:37.305Z,2.20
2022-12-22T23:32:04.475Z,2.30
2022-12-22T23:34:31.351Z,2.43
2022-12-22T23:36:58.290Z,2.47
2022-12-22T23:39:25.086Z,2.07
2022-12-22T23:41:51.806Z,1.93
2022-12-22T23:44:18.518Z,1.70
2022-12-22T23:46:45.290Z,2.47
2022-12-22T23:49:12.646Z,2.10
2022-12-22T23:51:39.352Z,2.80
2022-12-22T23:54:06.181Z,3.00
2022-12-22T23:56:32.961Z,3.03
2022-12-22T23:58:59.698Z,3.13
